Weather at Alderney Airport

Public forecast

Using degrees Celsius for public forecast. Weather courtesy of forecast.io.

Current aviation weather report (METAR) for Alderney Airport

Report is more than 6 hours old.

2024/05/21 17:50 (retrieved 11 hours ago)

EGJA 211750Z 27008KT 9000 SCT005 14/13 Q1009

Closest aviation forecast (TAF) to Alderney Airport

Forecast is more than 6 hours old.

Closest forecast is Le Havre-Octeville Airport, 90.2 nm (167.0 km) E.

2024/05/21 18:03 (retrieved 11 hours ago)

TAF TAF LFOH 211852Z 2118/2212 CNL